createdAt,value
2018-11-10T00:01:13.211Z,10.60
2018-11-10T00:03:40.418Z,10.70
2018-11-10T00:06:14.337Z,10.70
2018-11-10T00:08:41.529Z,10.70
2018-11-10T00:11:08.788Z,10.60
2018-11-10T00:13:35.937Z,10.60
2018-11-10T00:16:03.157Z,10.60
2018-11-10T00:18:30.397Z,10.60
2018-11-10T00:20:57.653Z,10.60
2018-11-10T00:23:24.788Z,10.60
2018-11-10T00:25:51.942Z,10.60
2018-11-10T00:28:19.145Z,10.60
2018-11-10T00:30:46.454Z,10.60
2018-11-10T00:33:13.621Z,10.60
2018-11-10T00:35:40.836Z,10.50
2018-11-10T00:38:07.993Z,10.50
2018-11-10T00:40:35.431Z,10.50
2018-11-10T00:43:02.719Z,10.50
2018-11-10T00:45:30.174Z,10.50
2018-11-10T00:47:57.332Z,10.50
2018-11-10T00:50:24.470Z,10.50
2018-11-10T00:52:51.668Z,10.50
2018-11-10T00:55:19.957Z,10.40
2018-11-10T00:57:47.209Z,10.40
2018-11-10T01:00:14.520Z,10.30
2018-11-10T01:02:42.951Z,10.30
2018-11-10T01:05:10.215Z,10.30
2018-11-10T01:07:37.770Z,10.20
2018-11-10T01:10:08.718Z,10.20
2018-11-10T01:12:35.893Z,10.20
2018-11-10T01:15:03.272Z,10.20
2018-11-10T01:17:30.503Z,10.20
2018-11-10T01:19:57.676Z,10.20
2018-11-10T01:22:24.924Z,10.20
2018-11-10T01:24:52.128Z,10.10
2018-11-10T01:27:19.389Z,10.10
2018-11-10T01:29:46.623Z,10.10
2018-11-10T01:32:13.930Z,10.10
2018-11-10T01:34:41.264Z,10.10
2018-11-10T01:37:08.418Z,10.10
2018-11-10T01:39:35.724Z,10.10
2018-11-10T01:42:03.355Z,10.10
2018-11-10T01:44:30.583Z,10.00
2018-11-10T01:46:59.888Z,10.00
2018-11-10T01:49:27.169Z,10.00
2018-11-10T01:51:59.397Z,10.00
2018-11-10T01:54:26.679Z,10.10
2018-11-10T01:56:53.966Z,10.10
2018-11-10T01:59:21.167Z,10.10
2018-11-10T02:01:48.445Z,10.00
2018-11-10T02:04:15.620Z,10.00
2018-11-10T02:06:42.916Z,10.00
2018-11-10T02:09:10.587Z,10.00
2018-11-10T02:11:37.753Z,10.00
2018-11-10T02:14:05.333Z,10.00
2018-11-10T02:16:32.508Z,10.10
2018-11-10T02:18:59.709Z,10.10
2018-11-10T02:21:26.946Z,10.00
2018-11-10T02:23:54.194Z,10.10
2018-11-10T02:26:21.444Z,10.10
2018-11-10T02:28:48.682Z,10.10
2018-11-10T02:31:15.817Z,10.10
2018-11-10T02:33:43.140Z,10.10
2018-11-10T02:36:10.411Z,10.10
2018-11-10T02:38:37.831Z,10.20
2018-11-10T02:41:05.018Z,10.20
2018-11-10T02:43:32.155Z,10.20
2018-11-10T02:45:59.455Z,10.30
2018-11-10T02:48:26.713Z,10.20
2018-11-10T02:50:55.964Z,10.20
2018-11-10T02:53:23.193Z,10.20
2018-11-10T02:55:50.370Z,10.20
2018-11-10T02:58:17.701Z,10.20
2018-11-10T03:00:44.955Z,10.20
2018-11-10T03:03:12.129Z,10.20
2018-11-10T03:05:39.377Z,10.20
2018-11-10T03:08:06.558Z,10.20
2018-11-10T03:10:33.816Z,10.20
2018-11-10T03:13:01.022Z,10.20
2018-11-10T03:15:28.212Z,10.20
2018-11-10T03:17:55.556Z,10.30
2018-11-10T03:20:22.764Z,10.30
2018-11-10T03:22:49.918Z,10.30
2018-11-10T03:25:17.222Z,10.30
2018-11-10T03:27:44.423Z,10.20
2018-11-10T03:30:11.663Z,10.20
2018-11-10T03:32:38.852Z,10.30
2018-11-10T03:35:06.653Z,10.30
2018-11-10T03:37:34.820Z,10.20
2018-11-10T03:40:02.209Z,10.30
2018-11-10T03:42:30.030Z,10.30
2018-11-10T03:44:57.261Z,10.30
2018-11-10T03:47:24.482Z,10.30
2018-11-10T03:49:51.747Z,10.30
2018-11-10T03:52:20.145Z,10.40
2018-11-10T03:54:47.261Z,10.30
2018-11-10T03:57:14.511Z,10.40
2018-11-10T03:59:41.642Z,10.40
2018-11-10T04:02:08.811Z,10.40
2018-11-10T04:04:36.207Z,10.30
2018-11-10T04:07:03.524Z,10.30
2018-11-10T04:09:31.414Z,10.30
2018-11-10T04:11:58.698Z,10.20
2018-11-10T04:14:26.346Z,10.30
2018-11-10T04:16:53.488Z,10.40
2018-11-10T04:19:20.707Z,10.40
2018-11-10T04:21:47.943Z,10.40
2018-11-10T04:24:15.249Z,10.30
2018-11-10T04:26:44.550Z,10.30
2018-11-10T04:29:11.781Z,10.30
2018-11-10T04:31:39.037Z,10.30
2018-11-10T04:34:06.604Z,10.30
2018-11-10T04:36:33.832Z,10.30
2018-11-10T04:39:04.548Z,10.30
2018-11-10T04:41:31.905Z,10.30
2018-11-10T04:43:59.104Z,10.30
2018-11-10T04:46:26.262Z,10.30
2018-11-10T04:48:53.464Z,10.30
2018-11-10T04:51:20.723Z,10.30
2018-11-10T04:53:47.851Z,10.30
2018-11-10T04:56:15.148Z,10.30
2018-11-10T04:58:42.492Z,10.20
2018-11-10T05:01:09.713Z,10.30
2018-11-10T05:03:37.026Z,10.30
2018-11-10T05:06:04.513Z,10.30
2018-11-10T05:08:32.131Z,10.30
2018-11-10T05:10:59.305Z,10.40
2018-11-10T05:13:26.460Z,10.30
2018-11-10T05:15:53.810Z,10.40
2018-11-10T05:18:20.965Z,10.40
2018-11-10T05:20:48.169Z,10.40
2018-11-10T05:23:15.369Z,10.40
2018-11-10T05:25:42.583Z,10.40
2018-11-10T05:28:09.861Z,10.50
2018-11-10T05:30:37.092Z,10.50
2018-11-10T05:33:05.006Z,10.40
2018-11-10T05:35:35.920Z,10.40
2018-11-10T05:38:03.324Z,10.30
2018-11-10T05:40:30.593Z,10.30
2018-11-10T05:42:57.906Z,10.30
2018-11-10T05:45:25.079Z,10.40
2018-11-10T05:47:52.244Z,10.40
2018-11-10T05:50:19.491Z,10.50
2018-11-10T05:52:46.769Z,10.40
2018-11-10T05:55:18.616Z,10.40
2018-11-10T05:57:45.752Z,10.50
2018-11-10T06:00:13.249Z,10.50
2018-11-10T06:02:41.845Z,10.40
2018-11-10T06:05:09.439Z,10.30
2018-11-10T06:07:36.671Z,10.30
2018-11-10T06:10:05.320Z,10.30
2018-11-10T06:12:32.412Z,10.30
2018-11-10T06:14:59.690Z,10.40
2018-11-10T06:17:26.824Z,10.40
2018-11-10T06:19:54.005Z,10.40
2018-11-10T06:22:21.197Z,10.30
2018-11-10T06:24:48.354Z,10.30
2018-11-10T06:27:15.687Z,10.30
2018-11-10T06:29:42.850Z,10.30
2018-11-10T06:32:10.195Z,10.30
2018-11-10T06:34:37.601Z,10.20
2018-11-10T06:37:05.267Z,10.30
2018-11-10T06:39:32.521Z,10.30
2018-11-10T06:41:59.830Z,10.30
2018-11-10T06:44:27.196Z,10.30
2018-11-10T06:46:54.416Z,10.40
2018-11-10T06:49:21.621Z,10.30
2018-11-10T06:51:48.971Z,10.20
2018-11-10T06:54:16.222Z,10.30
2018-11-10T06:56:43.553Z,10.30
2018-11-10T07:00:40.401Z,10.20
2018-11-10T07:03:07.601Z,10.20
2018-11-10T07:05:34.757Z,10.20
2018-11-10T07:08:02.033Z,10.20
2018-11-10T07:10:29.280Z,10.20
2018-11-10T07:12:56.430Z,10.20
2018-11-10T07:15:23.672Z,10.20
2018-11-10T07:17:50.932Z,10.10
2018-11-10T07:20:18.099Z,10.30
2018-11-10T07:22:45.316Z,10.20
2018-11-10T07:25:12.724Z,10.20
2018-11-10T07:27:40.120Z,10.10
2018-11-10T07:30:09.480Z,10.20
2018-11-10T07:32:36.823Z,10.20
2018-11-10T07:35:05.811Z,10.20
2018-11-10T07:37:33.928Z,10.20
2018-11-10T07:40:01.123Z,10.20
2018-11-10T07:42:28.333Z,10.20
2018-11-10T07:44:58.781Z,10.10
2018-11-10T07:47:25.955Z,10.20
2018-11-10T07:49:53.232Z,10.20
2018-11-10T07:52:24.212Z,10.10
2018-11-10T07:54:51.576Z,10.10
2018-11-10T07:57:18.931Z,10.10
2018-11-10T07:59:46.165Z,10.20
2018-11-10T08:02:13.429Z,10.20
2018-11-10T08:04:40.896Z,10.20
2018-11-10T08:07:08.150Z,10.20
2018-11-10T08:09:42.752Z,10.20
2018-11-10T08:12:09.985Z,10.30
2018-11-10T08:14:37.198Z,10.30
2018-11-10T08:17:04.863Z,10.30
2018-11-10T08:19:32.160Z,10.30
2018-11-10T08:21:59.420Z,10.40
2018-11-10T08:24:26.821Z,10.30
2018-11-10T08:26:55.270Z,10.40
2018-11-10T08:29:23.580Z,10.40
2018-11-10T08:31:50.932Z,10.50
2018-11-10T08:34:18.127Z,10.50
2018-11-10T08:36:45.430Z,10.60
2018-11-10T08:39:12.831Z,10.60
2018-11-10T08:41:42.052Z,10.60
2018-11-10T08:44:09.413Z,10.70
2018-11-10T08:46:36.875Z,10.70
2018-11-10T08:49:04.319Z,10.70
2018-11-10T08:51:31.743Z,10.70
2018-11-10T08:53:59.073Z,10.70
2018-11-10T08:56:26.524Z,10.70
2018-11-10T08:58:53.790Z,10.60
2018-11-10T09:01:21.264Z,10.60
2018-11-10T09:03:48.611Z,10.70
2018-11-10T09:06:15.864Z,10.70
2018-11-10T09:08:43.377Z,10.70
2018-11-10T09:11:12.779Z,10.70
2018-11-10T09:13:40.334Z,10.80
2018-11-10T09:16:07.622Z,10.80
2018-11-10T09:18:34.916Z,10.80
2018-11-10T09:21:06.055Z,10.80
2018-11-10T09:23:33.369Z,10.80
2018-11-10T09:26:00.671Z,10.90
2018-11-10T09:28:28.083Z,10.90
2018-11-10T09:30:55.478Z,11.00
2018-11-10T09:33:22.732Z,11.00
2018-11-10T09:35:50.204Z,11.00
2018-11-10T09:38:17.540Z,11.10
2018-11-10T09:40:44.860Z,11.20
2018-11-10T09:43:12.411Z,11.20
2018-11-10T09:45:41.335Z,11.30
2018-11-10T09:48:08.766Z,11.40
2018-11-10T09:50:36.067Z,11.40
2018-11-10T09:53:03.359Z,11.40
2018-11-10T09:55:30.653Z,11.40
2018-11-10T09:57:57.872Z,11.40
2018-11-10T10:00:25.192Z,11.40
2018-11-10T10:02:52.720Z,11.50
2018-11-10T10:05:19.831Z,11.60
2018-11-10T10:07:47.128Z,11.60
2018-11-10T10:10:15.538Z,11.60
2018-11-10T10:12:43.328Z,11.80
2018-11-10T10:15:14.063Z,11.80
2018-11-10T10:17:42.522Z,11.80
2018-11-10T10:20:13.242Z,11.80
2018-11-10T10:22:40.456Z,11.90
2018-11-10T10:25:09.258Z,12.00
2018-11-10T10:27:36.693Z,12.10
2018-11-10T10:30:06.063Z,12.20
2018-11-10T10:32:33.309Z,12.20
2018-11-10T10:35:00.559Z,12.30
2018-11-10T10:37:27.887Z,12.30
2018-11-10T10:39:55.441Z,12.40
2018-11-10T10:42:22.734Z,12.40
2018-11-10T10:44:50.093Z,12.50
2018-11-10T10:47:17.380Z,12.50
2018-11-10T10:49:44.584Z,12.50
2018-11-10T10:52:12.881Z,12.50
2018-11-10T10:54:45.231Z,12.50
2018-11-10T10:57:15.031Z,12.50
2018-11-10T10:59:42.283Z,12.50
2018-11-10T11:02:15.186Z,12.50
2018-11-10T11:04:48.092Z,12.60
2018-11-10T11:07:17.539Z,12.60
2018-11-10T11:09:47.115Z,12.70
2018-11-10T11:12:14.428Z,12.90
2018-11-10T11:14:42.305Z,13.00
2018-11-10T11:17:09.555Z,13.10
2018-11-10T11:19:36.750Z,13.10
2018-11-10T11:22:05.508Z,13.10
2018-11-10T11:24:32.716Z,13.20
2018-11-10T11:27:00.108Z,13.20
2018-11-10T11:29:28.735Z,13.30
2018-11-10T11:31:56.308Z,13.30
2018-11-10T11:34:24.258Z,13.30
2018-11-10T11:36:51.769Z,13.30
2018-11-10T11:39:19.217Z,13.30
2018-11-10T11:41:46.591Z,13.30
2018-11-10T11:44:14.150Z,13.30
2018-11-10T11:46:41.429Z,13.30
2018-11-10T11:49:08.825Z,13.30
2018-11-10T11:51:36.072Z,13.30
2018-11-10T11:54:03.792Z,13.30
2018-11-10T11:56:31.122Z,13.40
2018-11-10T11:58:59.479Z,13.30
2018-11-10T12:01:27.908Z,13.40
2018-11-10T12:10:53.938Z,13.60
2018-11-10T12:13:21.492Z,13.70
2018-11-10T12:15:48.713Z,13.80
2018-11-10T12:18:17.812Z,13.80
2018-11-10T12:20:47.591Z,13.90
2018-11-10T12:23:15.412Z,14.00
2018-11-10T12:25:43.841Z,14.20
2018-11-10T12:28:11.070Z,14.30
2018-11-10T12:30:38.307Z,14.40
2018-11-10T12:33:05.590Z,14.40
2018-11-10T12:35:32.788Z,14.30
2018-11-10T12:38:01.758Z,14.40
2018-11-10T12:40:30.882Z,14.40
2018-11-10T12:43:00.605Z,14.30
2018-11-10T12:45:28.847Z,14.40
2018-11-10T12:47:56.189Z,14.40
2018-11-10T12:50:23.431Z,14.50
2018-11-10T12:52:50.592Z,14.60
2018-11-10T12:55:17.914Z,14.80
2018-11-10T12:57:46.015Z,14.90
2018-11-10T13:00:14.700Z,14.90
2018-11-10T13:02:42.273Z,14.80
2018-11-10T13:05:10.388Z,14.70
2018-11-10T13:07:39.693Z,14.60
2018-11-10T13:10:08.677Z,14.50
2018-11-10T13:12:35.897Z,14.50
2018-11-10T13:15:05.697Z,14.50
2018-11-10T13:17:33.001Z,14.50
2018-11-10T13:20:00.132Z,14.50
2018-11-10T13:22:27.249Z,14.40
2018-11-10T13:24:54.449Z,14.40
2018-11-10T13:27:21.585Z,14.40
2018-11-10T13:29:48.875Z,14.30
2018-11-10T13:32:16.099Z,14.30
2018-11-10T13:34:43.806Z,14.30
2018-11-10T13:37:17.556Z,14.20
2018-11-10T13:39:44.946Z,14.20
2018-11-10T13:42:12.258Z,14.20
2018-11-10T13:44:39.424Z,14.20
2018-11-10T13:47:06.908Z,14.20
2018-11-10T13:49:34.116Z,14.20
2018-11-10T13:52:01.636Z,14.20
2018-11-10T13:54:28.518Z,14.20
2018-11-10T13:56:55.867Z,14.20
2018-11-10T13:59:23.099Z,14.20
2018-11-10T14:01:51.313Z,14.20
2018-11-10T14:04:18.545Z,14.20
2018-11-10T14:06:45.800Z,14.10
2018-11-10T14:09:14.107Z,14.10
2018-11-10T14:11:41.513Z,14.10
2018-11-10T14:14:09.256Z,14.10
2018-11-10T14:16:36.573Z,14.10
2018-11-10T14:19:04.058Z,14.00
2018-11-10T14:21:31.253Z,14.00
2018-11-10T14:23:58.502Z,14.00
2018-11-10T14:26:25.735Z,14.00
2018-11-10T14:28:56.266Z,13.90
2018-11-10T14:31:23.479Z,13.90
2018-11-10T14:33:51.848Z,14.00
2018-11-10T14:36:19.107Z,14.10
2018-11-10T14:38:46.401Z,14.00
2018-11-10T14:41:13.670Z,14.00
2018-11-10T14:43:40.913Z,13.90
2018-11-10T14:46:08.121Z,13.80
2018-11-10T14:48:35.497Z,13.80
2018-11-10T14:51:02.729Z,13.70
2018-11-10T14:53:29.950Z,13.70
2018-11-10T14:55:57.114Z,13.70
2018-11-10T14:58:24.387Z,13.70
2018-11-10T15:00:52.432Z,13.60
2018-11-10T15:03:19.734Z,13.60
2018-11-10T15:05:47.097Z,13.60
2018-11-10T15:08:14.236Z,13.50
2018-11-10T15:10:41.669Z,13.50
2018-11-10T15:13:11.271Z,13.50
2018-11-10T15:15:38.554Z,13.40
2018-11-10T15:18:10.457Z,13.40
2018-11-10T15:20:39.645Z,13.40
2018-11-10T15:23:06.879Z,13.30
2018-11-10T15:25:36.570Z,13.30
2018-11-10T15:28:04.120Z,13.30
2018-11-10T15:30:31.369Z,13.20
2018-11-10T15:32:58.568Z,13.20
2018-11-10T15:35:26.861Z,13.20
2018-11-10T15:37:56.163Z,13.10
2018-11-10T15:40:23.327Z,13.10
2018-11-10T15:42:50.689Z,13.00
2018-11-10T15:45:18.995Z,13.00
2018-11-10T15:47:46.292Z,13.00
2018-11-10T15:50:15.150Z,13.10
2018-11-10T15:52:42.309Z,13.10
2018-11-10T15:55:10.258Z,13.00
2018-11-10T15:57:40.077Z,13.00
2018-11-10T16:00:09.493Z,13.00
2018-11-10T16:02:36.684Z,12.90
2018-11-10T16:05:04.357Z,12.90
2018-11-10T16:07:31.600Z,12.90
2018-11-10T16:10:00.836Z,12.90
2018-11-10T16:12:29.248Z,13.00
2018-11-10T16:14:59.792Z,13.00
2018-11-10T16:17:29.168Z,13.00
2018-11-10T16:19:57.900Z,13.10
2018-11-10T16:22:25.049Z,13.10
2018-11-10T16:24:52.838Z,13.10
2018-11-10T16:27:20.376Z,13.00
2018-11-10T16:29:47.668Z,13.00
2018-11-10T16:32:16.964Z,12.90
2018-11-10T16:34:44.179Z,12.90
2018-11-10T16:37:12.399Z,12.90
2018-11-10T16:39:39.717Z,12.90
2018-11-10T16:42:06.878Z,12.90
2018-11-10T16:44:34.420Z,13.00
2018-11-10T16:47:01.880Z,13.00
2018-11-10T16:49:29.539Z,13.00
2018-11-10T16:51:56.958Z,13.00
2018-11-10T16:54:25.287Z,12.90
2018-11-10T16:56:52.655Z,12.90
2018-11-10T16:59:19.917Z,12.90
2018-11-10T17:01:47.758Z,12.90
2018-11-10T17:04:15.610Z,12.90
2018-11-10T17:06:42.881Z,12.90
2018-11-10T17:09:11.810Z,12.90
2018-11-10T17:11:40.299Z,12.90
2018-11-10T17:14:09.410Z,12.90
2018-11-10T17:16:36.739Z,12.90
2018-11-10T17:19:05.521Z,12.90
2018-11-10T17:21:33.803Z,12.90
2018-11-10T17:24:01.162Z,12.90
2018-11-10T17:26:28.284Z,12.80
2018-11-10T17:28:55.475Z,12.90
2018-11-10T17:31:24.261Z,12.80
2018-11-10T17:33:51.585Z,12.90
2018-11-10T17:36:18.796Z,12.80
2018-11-10T17:38:48.125Z,12.80
2018-11-10T17:41:16.855Z,12.80
2018-11-10T17:43:45.791Z,12.70
2018-11-10T17:46:14.289Z,12.80
2018-11-10T17:48:42.586Z,12.80
2018-11-10T17:51:10.380Z,12.80
2018-11-10T17:53:37.589Z,12.80
2018-11-10T17:56:04.689Z,12.80
2018-11-10T17:58:31.934Z,12.80
2018-11-10T18:00:59.194Z,12.70
2018-11-10T18:03:26.472Z,12.80
2018-11-10T18:05:53.945Z,12.70
2018-11-10T18:08:21.255Z,12.70
2018-11-10T18:10:48.515Z,12.80
2018-11-10T18:13:15.704Z,12.80
2018-11-10T18:15:42.923Z,12.80
2018-11-10T18:18:10.128Z,12.90
2018-11-10T18:20:37.397Z,12.80
2018-11-10T18:23:05.688Z,12.80
2018-11-10T18:25:32.953Z,12.80
2018-11-10T18:28:00.211Z,13.00
2018-11-10T18:30:28.531Z,13.00
2018-11-10T18:32:55.946Z,12.90
2018-11-10T18:35:23.155Z,12.90
2018-11-10T18:37:50.401Z,12.90
2018-11-10T18:40:18.676Z,12.90
2018-11-10T18:42:45.905Z,13.00
2018-11-10T18:45:13.145Z,13.00
2018-11-10T18:47:40.875Z,13.00
2018-11-10T18:50:10.029Z,13.00
2018-11-10T18:52:37.281Z,13.00
2018-11-10T18:55:04.539Z,13.00
2018-11-10T18:57:31.917Z,12.90
2018-11-10T18:59:59.017Z,12.90
2018-11-10T19:02:26.330Z,12.90
2018-11-10T19:04:53.636Z,12.90
2018-11-10T19:07:21.269Z,12.90
2018-11-10T19:09:48.464Z,13.00
2018-11-10T19:12:15.895Z,13.00
2018-11-10T19:14:43.175Z,13.00
2018-11-10T19:17:10.353Z,13.00
2018-11-10T19:19:40.379Z,12.90
2018-11-10T19:22:07.706Z,12.80
2018-11-10T19:24:38.501Z,12.90
2018-11-10T19:27:07.170Z,12.70
2018-11-10T19:29:34.802Z,12.70
2018-11-10T19:32:02.220Z,12.70
2018-11-10T19:34:29.398Z,12.70
2018-11-10T19:36:56.656Z,12.70
2018-11-10T19:39:24.070Z,12.60
2018-11-10T19:41:51.426Z,12.60
2018-11-10T19:44:18.702Z,12.60
2018-11-10T19:46:45.996Z,12.60
2018-11-10T19:49:13.321Z,12.60
2018-11-10T19:51:44.361Z,12.70
2018-11-10T19:54:11.380Z,12.60
2018-11-10T19:56:40.522Z,12.60
2018-11-10T19:59:08.267Z,12.50
2018-11-10T20:01:35.746Z,12.50
2018-11-10T20:04:04.201Z,12.50
2018-11-10T20:06:31.872Z,12.50
2018-11-10T20:09:00.471Z,12.50
2018-11-10T20:11:27.815Z,12.50
2018-11-10T20:13:55.204Z,12.50
2018-11-10T20:16:23.395Z,12.60
2018-11-10T20:18:51.060Z,12.60
2018-11-10T20:21:19.772Z,12.60
2018-11-10T20:23:49.274Z,12.50
2018-11-10T20:26:16.818Z,12.50
2018-11-10T20:28:44.251Z,12.60
2018-11-10T20:31:13.026Z,12.60
2018-11-10T20:33:40.975Z,12.50
2018-11-10T20:36:10.277Z,12.50
2018-11-10T20:38:37.745Z,12.60
2018-11-10T20:41:05.327Z,12.60
2018-11-10T20:43:33.183Z,12.50
2018-11-10T20:46:01.160Z,12.60
2018-11-10T20:48:28.994Z,12.50
2018-11-10T20:50:56.836Z,12.60
2018-11-10T20:53:24.439Z,12.70
2018-11-10T20:55:52.912Z,12.70
2018-11-10T20:58:24.664Z,12.70
2018-11-10T21:00:52.591Z,12.70
2018-11-10T21:03:20.317Z,12.70
2018-11-10T21:05:48.344Z,12.70
2018-11-10T21:08:16.729Z,12.70
2018-11-10T21:10:55.203Z,12.70
2018-11-10T21:13:22.948Z,12.70
2018-11-10T21:15:50.842Z,12.70
2018-11-10T21:18:18.510Z,12.70
2018-11-10T21:20:46.036Z,12.80
2018-11-10T21:23:14.104Z,12.80
2018-11-10T21:25:41.474Z,12.80
2018-11-10T21:28:08.863Z,12.80
2018-11-10T21:30:36.519Z,12.80
2018-11-10T21:33:03.787Z,12.80
2018-11-10T21:35:33.822Z,12.80
2018-11-10T21:38:02.192Z,12.90
2018-11-10T21:40:31.183Z,12.80
2018-11-10T21:42:58.383Z,12.90
2018-11-10T21:45:25.692Z,12.80
2018-11-10T21:47:52.884Z,12.80
2018-11-10T21:50:20.261Z,12.90
2018-11-10T21:52:48.776Z,12.90
2018-11-10T21:55:19.596Z,12.80
2018-11-10T21:57:50.888Z,12.70
2018-11-10T22:00:21.813Z,12.90
2018-11-10T22:02:55.031Z,12.80
2018-11-10T22:05:22.320Z,12.90
2018-11-10T22:07:49.620Z,12.90
2018-11-10T22:10:17.693Z,13.00
2018-11-10T22:12:48.479Z,13.00
2018-11-10T22:15:17.154Z,12.90
2018-11-10T22:17:44.752Z,13.00
2018-11-10T22:20:13.214Z,13.00
2018-11-10T22:22:40.723Z,13.00
2018-11-10T22:25:10.118Z,12.90
2018-11-10T22:27:38.385Z,12.90
2018-11-10T22:30:10.586Z,13.00
2018-11-10T22:32:39.960Z,12.90
2018-11-10T22:35:07.837Z,12.90
2018-11-10T22:37:36.473Z,12.90
2018-11-10T22:40:06.395Z,12.80
2018-11-10T22:42:35.371Z,12.90
2018-11-10T22:45:03.281Z,12.80
2018-11-10T22:47:30.840Z,12.70
2018-11-10T22:49:58.172Z,12.70
2018-11-10T22:52:25.356Z,12.60
2018-11-10T22:54:53.678Z,12.70
2018-11-10T22:57:21.117Z,12.70
2018-11-10T22:59:48.963Z,12.70
2018-11-10T23:02:17.324Z,12.60
2018-11-10T23:04:45.045Z,12.70
2018-11-10T23:07:13.184Z,12.60
2018-11-10T23:09:40.858Z,12.60
2018-11-10T23:12:08.218Z,12.60
2018-11-10T23:14:36.374Z,12.60
2018-11-10T23:17:05.106Z,12.60
2018-11-10T23:19:32.262Z,12.50
2018-11-10T23:21:59.381Z,12.50
2018-11-10T23:24:26.582Z,12.50
2018-11-10T23:26:54.922Z,12.60
2018-11-10T23:29:22.208Z,12.50
2018-11-10T23:31:49.571Z,12.60
2018-11-10T23:34:16.931Z,12.60
2018-11-10T23:36:44.164Z,12.60
2018-11-10T23:39:12.318Z,12.60
2018-11-10T23:41:40.100Z,12.60
2018-11-10T23:44:07.823Z,12.60
2018-11-10T23:46:35.123Z,12.60
2018-11-10T23:49:05.245Z,12.60
2018-11-10T23:51:33.506Z,12.60
2018-11-10T23:54:00.853Z,12.70
2018-11-10T23:56:28.013Z,12.70
2018-11-10T23:58:56.528Z,12.70
